sensor_id;sensor_type;location;lat;lon;timestamp;P1;durP1;ratioP1;P2;durP2;ratioP2
22429;SDS011;11382;48.086;11.632;2023-02-14T00:02:06;55.75;;;20.70;;
22429;SDS011;11382;48.086;11.632;2023-02-14T00:04:37;80.72;;;23.90;;
22429;SDS011;11382;48.086;11.632;2023-02-14T00:07:09;82.28;;;23.00;;
22429;SDS011;11382;48.086;11.632;2023-02-14T00:09:37;74.85;;;22.48;;
22429;SDS011;11382;48.086;11.632;2023-02-14T00:12:06;136.73;;;27.98;;
22429;SDS011;11382;48.086;11.632;2023-02-14T00:14:34;110.20;;;28.58;;
22429;SDS011;11382;48.086;11.632;2023-02-14T00:17:21;107.13;;;27.67;;
22429;SDS011;11382;48.086;11.632;2023-02-14T00:19:50;52.42;;;21.27;;
22429;SDS011;11382;48.086;11.632;2023-02-14T00:22:21;45.30;;;20.33;;
22429;SDS011;11382;48.086;11.632;2023-02-14T00:24:49;88.25;;;24.67;;
22429;SDS011;11382;48.086;11.632;2023-02-14T00:27:17;104.45;;;28.00;;
22429;SDS011;11382;48.086;11.632;2023-02-14T00:29:45;100.55;;;25.92;;
22429;SDS011;11382;48.086;11.632;2023-02-14T00:32:13;95.80;;;27.38;;
22429;SDS011;11382;48.086;11.632;2023-02-14T00:34:44;75.03;;;23.45;;
22429;SDS011;11382;48.086;11.632;2023-02-14T00:37:19;54.15;;;22.83;;
22429;SDS011;11382;48.086;11.632;2023-02-14T00:39:48;74.70;;;24.15;;
22429;SDS011;11382;48.086;11.632;2023-02-14T00:42:16;82.63;;;24.17;;
22429;SDS011;11382;48.086;11.632;2023-02-14T00:44:44;112.03;;;28.88;;
22429;SDS011;11382;48.086;11.632;2023-02-14T00:47:12;58.67;;;22.30;;
22429;SDS011;11382;48.086;11.632;2023-02-14T00:49:40;84.20;;;27.35;;
22429;SDS011;11382;48.086;11.632;2023-02-14T00:52:10;78.95;;;23.52;;
22429;SDS011;11382;48.086;11.632;2023-02-14T00:54:40;97.97;;;24.88;;
22429;SDS011;11382;48.086;11.632;2023-02-14T00:57:08;46.55;;;22.55;;
22429;SDS011;11382;48.086;11.632;2023-02-14T00:59:37;59.00;;;22.33;;
22429;SDS011;11382;48.086;11.632;2023-02-14T01:02:04;54.30;;;22.75;;
22429;SDS011;11382;48.086;11.632;2023-02-14T01:04:33;72.22;;;24.23;;
22429;SDS011;11382;48.086;11.632;2023-02-14T01:07:02;53.75;;;22.15;;
22429;SDS011;11382;48.086;11.632;2023-02-14T01:09:31;45.55;;;21.75;;
22429;SDS011;11382;48.086;11.632;2023-02-14T01:12:00;46.85;;;21.67;;
22429;SDS011;11382;48.086;11.632;2023-02-14T01:14:28;62.22;;;22.33;;
22429;SDS011;11382;48.086;11.632;2023-02-14T01:16:56;75.57;;;23.50;;
22429;SDS011;11382;48.086;11.632;2023-02-14T01:19:24;67.10;;;23.33;;
22429;SDS011;11382;48.086;11.632;2023-02-14T01:21:52;71.93;;;22.67;;
22429;SDS011;11382;48.086;11.632;2023-02-14T01:24:21;56.47;;;23.02;;
22429;SDS011;11382;48.086;11.632;2023-02-14T01:26:51;58.92;;;21.00;;
22429;SDS011;11382;48.086;11.632;2023-02-14T01:29:21;71.35;;;23.17;;
22429;SDS011;11382;48.086;11.632;2023-02-14T01:31:50;61.95;;;21.83;;
22429;SDS011;11382;48.086;11.632;2023-02-14T01:34:19;46.38;;;20.40;;
22429;SDS011;11382;48.086;11.632;2023-02-14T01:36:47;52.13;;;21.83;;
22429;SDS011;11382;48.086;11.632;2023-02-14T01:39:17;64.53;;;23.05;;
22429;SDS011;11382;48.086;11.632;2023-02-14T01:41:46;37.33;;;19.30;;
22429;SDS011;11382;48.086;11.632;2023-02-14T01:47:38;73.32;;;23.40;;
22429;SDS011;11382;48.086;11.632;2023-02-14T01:50:10;55.08;;;24.23;;
22429;SDS011;11382;48.086;11.632;2023-02-14T01:52:43;62.72;;;22.00;;
22429;SDS011;11382;48.086;11.632;2023-02-14T01:55:15;35.95;;;15.80;;
22429;SDS011;11382;48.086;11.632;2023-02-14T01:57:49;73.85;;;21.50;;
22429;SDS011;11382;48.086;11.632;2023-02-14T02:00:20;43.10;;;17.92;;
22429;SDS011;11382;48.086;11.632;2023-02-14T02:03:08;47.08;;;17.60;;
22429;SDS011;11382;48.086;11.632;2023-02-14T02:05:37;72.40;;;19.98;;
22429;SDS011;11382;48.086;11.632;2023-02-14T02:08:08;52.13;;;18.38;;
22429;SDS011;11382;48.086;11.632;2023-02-14T02:10:37;36.67;;;17.70;;
22429;SDS011;11382;48.086;11.632;2023-02-14T02:13:06;46.17;;;17.02;;
22429;SDS011;11382;48.086;11.632;2023-02-14T02:15:37;39.03;;;16.58;;
22429;SDS011;11382;48.086;11.632;2023-02-14T02:18:10;58.75;;;20.42;;
22429;SDS011;11382;48.086;11.632;2023-02-14T02:24:06;44.83;;;18.58;;
22429;SDS011;11382;48.086;11.632;2023-02-14T02:26:58;57.92;;;19.75;;
22429;SDS011;11382;48.086;11.632;2023-02-14T02:30:03;50.25;;;19.10;;
22429;SDS011;11382;48.086;11.632;2023-02-14T02:39:03;34.40;;;17.52;;
22429;SDS011;11382;48.086;11.632;2023-02-14T02:41:45;70.28;;;20.73;;
22429;SDS011;11382;48.086;11.632;2023-02-14T02:44:24;67.85;;;20.30;;
22429;SDS011;11382;48.086;11.632;2023-02-14T02:47:01;93.43;;;25.25;;
22429;SDS011;11382;48.086;11.632;2023-02-14T02:49:36;53.65;;;22.05;;
22429;SDS011;11382;48.086;11.632;2023-02-14T02:52:34;52.33;;;20.80;;
22429;SDS011;11382;48.086;11.632;2023-02-14T02:55:25;60.63;;;21.70;;
22429;SDS011;11382;48.086;11.632;2023-02-14T02:58:18;65.03;;;22.42;;
22429;SDS011;11382;48.086;11.632;2023-02-14T03:00:47;52.30;;;18.92;;
22429;SDS011;11382;48.086;11.632;2023-02-14T03:03:20;46.97;;;19.50;;
22429;SDS011;11382;48.086;11.632;2023-02-14T03:06:08;48.35;;;19.27;;
22429;SDS011;11382;48.086;11.632;2023-02-14T03:08:37;47.97;;;20.25;;
22429;SDS011;11382;48.086;11.632;2023-02-14T03:11:05;47.53;;;18.58;;
22429;SDS011;11382;48.086;11.632;2023-02-14T03:13:41;48.38;;;20.30;;
22429;SDS011;11382;48.086;11.632;2023-02-14T03:16:23;60.47;;;20.13;;
22429;SDS011;11382;48.086;11.632;2023-02-14T03:22:39;37.92;;;18.27;;
22429;SDS011;11382;48.086;11.632;2023-02-14T03:25:19;70.28;;;22.13;;
22429;SDS011;11382;48.086;11.632;2023-02-14T03:27:58;79.75;;;24.48;;
22429;SDS011;11382;48.086;11.632;2023-02-14T03:30:35;71.50;;;25.17;;
22429;SDS011;11382;48.086;11.632;2023-02-14T03:33:15;52.78;;;18.02;;
22429;SDS011;11382;48.086;11.632;2023-02-14T03:35:50;37.45;;;18.42;;
22429;SDS011;11382;48.086;11.632;2023-02-14T03:38:23;56.20;;;19.90;;
22429;SDS011;11382;48.086;11.632;2023-02-14T03:40:58;70.30;;;20.35;;
22429;SDS011;11382;48.086;11.632;2023-02-14T03:43:30;55.88;;;19.38;;
22429;SDS011;11382;48.086;11.632;2023-02-14T03:46:02;48.40;;;18.58;;
22429;SDS011;11382;48.086;11.632;2023-02-14T03:48:33;42.50;;;18.27;;
22429;SDS011;11382;48.086;11.632;2023-02-14T03:51:03;49.63;;;19.15;;
22429;SDS011;11382;48.086;11.632;2023-02-14T03:53:34;54.90;;;18.83;;
22429;SDS011;11382;48.086;11.632;2023-02-14T03:56:09;66.45;;;21.25;;
22429;SDS011;11382;48.086;11.632;2023-02-14T03:58:41;82.55;;;21.25;;
22429;SDS011;11382;48.086;11.632;2023-02-14T04:01:13;60.10;;;19.60;;
22429;SDS011;11382;48.086;11.632;2023-02-14T04:03:47;90.95;;;25.67;;
22429;SDS011;11382;48.086;11.632;2023-02-14T04:06:17;53.45;;;20.05;;
22429;SDS011;11382;48.086;11.632;2023-02-14T04:08:46;109.78;;;25.10;;
22429;SDS011;11382;48.086;11.632;2023-02-14T04:11:15;64.63;;;23.67;;
22429;SDS011;11382;48.086;11.632;2023-02-14T04:13:43;66.63;;;21.33;;
22429;SDS011;11382;48.086;11.632;2023-02-14T04:16:11;60.83;;;21.73;;
22429;SDS011;11382;48.086;11.632;2023-02-14T04:18:40;50.53;;;19.33;;
22429;SDS011;11382;48.086;11.632;2023-02-14T04:21:34;69.10;;;22.08;;
22429;SDS011;11382;48.086;11.632;2023-02-14T04:24:03;50.22;;;18.02;;
22429;SDS011;11382;48.086;11.632;2023-02-14T04:26:32;45.53;;;18.67;;
22429;SDS011;11382;48.086;11.632;2023-02-14T04:29:01;53.90;;;20.50;;
22429;SDS011;11382;48.086;11.632;2023-02-14T04:31:31;63.15;;;21.00;;
22429;SDS011;11382;48.086;11.632;2023-02-14T04:33:59;102.53;;;24.35;;
22429;SDS011;11382;48.086;11.632;2023-02-14T04:36:28;67.70;;;23.70;;
22429;SDS011;11382;48.086;11.632;2023-02-14T04:38:56;58.65;;;22.20;;
22429;SDS011;11382;48.086;11.632;2023-02-14T04:41:24;98.43;;;24.35;;
22429;SDS011;11382;48.086;11.632;2023-02-14T04:43:54;61.88;;;23.23;;
22429;SDS011;11382;48.086;11.632;2023-02-14T04:46:22;43.60;;;19.58;;
22429;SDS011;11382;48.086;11.632;2023-02-14T04:48:50;60.55;;;20.63;;
22429;SDS011;11382;48.086;11.632;2023-02-14T04:51:18;39.17;;;19.88;;
22429;SDS011;11382;48.086;11.632;2023-02-14T04:53:46;51.42;;;19.88;;
22429;SDS011;11382;48.086;11.632;2023-02-14T04:56:14;68.75;;;22.70;;
22429;SDS011;11382;48.086;11.632;2023-02-14T04:58:42;38.85;;;18.55;;
22429;SDS011;11382;48.086;11.632;2023-02-14T05:01:11;57.05;;;21.23;;
22429;SDS011;11382;48.086;11.632;2023-02-14T05:03:39;51.78;;;21.45;;
22429;SDS011;11382;48.086;11.632;2023-02-14T05:06:08;48.65;;;19.38;;
22429;SDS011;11382;48.086;11.632;2023-02-14T05:08:40;32.87;;;13.77;;
22429;SDS011;11382;48.086;11.632;2023-02-14T05:11:08;61.00;;;19.30;;
22429;SDS011;11382;48.086;11.632;2023-02-14T05:13:36;59.05;;;18.67;;
22429;SDS011;11382;48.086;11.632;2023-02-14T05:16:05;59.15;;;19.65;;
22429;SDS011;11382;48.086;11.632;2023-02-14T05:18:34;62.22;;;20.65;;
22429;SDS011;11382;48.086;11.632;2023-02-14T05:21:02;51.72;;;18.17;;
22429;SDS011;11382;48.086;11.632;2023-02-14T05:23:31;137.07;;;30.38;;
22429;SDS011;11382;48.086;11.632;2023-02-14T05:25:59;127.22;;;26.75;;
22429;SDS011;11382;48.086;11.632;2023-02-14T05:28:27;47.38;;;19.38;;
22429;SDS011;11382;48.086;11.632;2023-02-14T05:30:55;59.15;;;20.38;;
22429;SDS011;11382;48.086;11.632;2023-02-14T05:33:24;48.53;;;17.92;;
22429;SDS011;11382;48.086;11.632;2023-02-14T05:35:54;77.13;;;19.95;;
22429;SDS011;11382;48.086;11.632;2023-02-14T05:38:24;57.88;;;18.67;;
22429;SDS011;11382;48.086;11.632;2023-02-14T05:40:52;61.13;;;21.33;;
22429;SDS011;11382;48.086;11.632;2023-02-14T05:43:20;47.20;;;19.17;;
22429;SDS011;11382;48.086;11.632;2023-02-14T05:45:50;78.97;;;24.02;;
22429;SDS011;11382;48.086;11.632;2023-02-14T05:48:19;39.40;;;18.42;;
22429;SDS011;11382;48.086;11.632;2023-02-14T05:50:47;108.57;;;25.17;;
22429;SDS011;11382;48.086;11.632;2023-02-14T05:53:18;91.65;;;22.50;;
22429;SDS011;11382;48.086;11.632;2023-02-14T05:55:46;80.57;;;21.35;;
22429;SDS011;11382;48.086;11.632;2023-02-14T05:58:14;61.90;;;20.20;;
22429;SDS011;11382;48.086;11.632;2023-02-14T06:00:42;51.33;;;20.13;;
22429;SDS011;11382;48.086;11.632;2023-02-14T06:03:10;49.40;;;18.92;;
22429;SDS011;11382;48.086;11.632;2023-02-14T06:05:38;52.25;;;20.15;;
22429;SDS011;11382;48.086;11.632;2023-02-14T06:08:07;47.10;;;19.98;;
22429;SDS011;11382;48.086;11.632;2023-02-14T06:10:37;113.80;;;23.95;;
22429;SDS011;11382;48.086;11.632;2023-02-14T06:13:07;46.60;;;18.77;;
22429;SDS011;11382;48.086;11.632;2023-02-14T06:15:36;49.35;;;19.88;;
22429;SDS011;11382;48.086;11.632;2023-02-14T06:18:04;53.10;;;20.38;;
22429;SDS011;11382;48.086;11.632;2023-02-14T06:20:33;125.60;;;24.98;;
22429;SDS011;11382;48.086;11.632;2023-02-14T06:23:02;66.43;;;21.23;;
22429;SDS011;11382;48.086;11.632;2023-02-14T06:25:30;37.78;;;16.95;;
22429;SDS011;11382;48.086;11.632;2023-02-14T06:28:00;45.45;;;18.58;;
22429;SDS011;11382;48.086;11.632;2023-02-14T06:30:28;45.45;;;18.00;;
22429;SDS011;11382;48.086;11.632;2023-02-14T06:32:56;29.88;;;15.57;;
22429;SDS011;11382;48.086;11.632;2023-02-14T06:35:24;32.92;;;16.60;;
22429;SDS011;11382;48.086;11.632;2023-02-14T06:37:52;38.60;;;17.55;;
22429;SDS011;11382;48.086;11.632;2023-02-14T06:40:20;39.03;;;17.48;;
22429;SDS011;11382;48.086;11.632;2023-02-14T06:42:49;32.75;;;16.92;;
22429;SDS011;11382;48.086;11.632;2023-02-14T06:45:18;33.35;;;16.42;;
22429;SDS011;11382;48.086;11.632;2023-02-14T06:47:46;52.15;;;18.13;;
22429;SDS011;11382;48.086;11.632;2023-02-14T06:50:14;44.63;;;16.23;;
22429;SDS011;11382;48.086;11.632;2023-02-14T06:52:42;53.63;;;20.15;;
22429;SDS011;11382;48.086;11.632;2023-02-14T06:55:11;49.95;;;17.73;;
22429;SDS011;11382;48.086;11.632;2023-02-14T06:57:39;38.60;;;16.05;;
22429;SDS011;11382;48.086;11.632;2023-02-14T07:00:07;31.05;;;16.73;;
22429;SDS011;11382;48.086;11.632;2023-02-14T07:02:37;41.28;;;18.38;;
22429;SDS011;11382;48.086;11.632;2023-02-14T07:05:05;56.33;;;18.30;;
22429;SDS011;11382;48.086;11.632;2023-02-14T07:07:34;43.15;;;20.33;;
22429;SDS011;11382;48.086;11.632;2023-02-14T07:10:02;58.08;;;19.67;;
22429;SDS011;11382;48.086;11.632;2023-02-14T07:12:30;91.65;;;25.13;;
22429;SDS011;11382;48.086;11.632;2023-02-14T07:14:58;59.08;;;20.95;;
22429;SDS011;11382;48.086;11.632;2023-02-14T07:17:26;121.53;;;27.92;;
22429;SDS011;11382;48.086;11.632;2023-02-14T07:19:55;103.53;;;24.40;;
22429;SDS011;11382;48.086;11.632;2023-02-14T07:22:24;111.72;;;23.40;;
22429;SDS011;11382;48.086;11.632;2023-02-14T07:24:55;92.57;;;23.67;;
22429;SDS011;11382;48.086;11.632;2023-02-14T07:27:23;73.70;;;23.17;;
22429;SDS011;11382;48.086;11.632;2023-02-14T07:29:51;114.75;;;26.10;;
22429;SDS011;11382;48.086;11.632;2023-02-14T07:32:19;44.13;;;18.52;;
22429;SDS011;11382;48.086;11.632;2023-02-14T07:34:48;95.57;;;23.90;;
22429;SDS011;11382;48.086;11.632;2023-02-14T07:37:18;74.03;;;21.30;;
22429;SDS011;11382;48.086;11.632;2023-02-14T07:39:46;80.10;;;21.75;;
22429;SDS011;11382;48.086;11.632;2023-02-14T07:42:14;63.28;;;20.50;;
22429;SDS011;11382;48.086;11.632;2023-02-14T07:44:43;47.08;;;19.45;;
22429;SDS011;11382;48.086;11.632;2023-02-14T07:47:11;45.83;;;19.52;;
22429;SDS011;11382;48.086;11.632;2023-02-14T07:49:39;55.13;;;20.65;;
22429;SDS011;11382;48.086;11.632;2023-02-14T07:52:07;46.72;;;20.00;;
22429;SDS011;11382;48.086;11.632;2023-02-14T07:54:37;53.70;;;19.23;;
22429;SDS011;11382;48.086;11.632;2023-02-14T07:57:07;60.08;;;20.83;;
22429;SDS011;11382;48.086;11.632;2023-02-14T07:59:35;40.90;;;19.52;;
22429;SDS011;11382;48.086;11.632;2023-02-14T08:02:03;67.55;;;19.50;;
22429;SDS011;11382;48.086;11.632;2023-02-14T08:04:31;90.50;;;23.48;;
22429;SDS011;11382;48.086;11.632;2023-02-14T08:06:59;58.33;;;20.20;;
22429;SDS011;11382;48.086;11.632;2023-02-14T08:09:27;35.20;;;17.70;;
22429;SDS011;11382;48.086;11.632;2023-02-14T08:11:57;44.90;;;18.63;;
22429;SDS011;11382;48.086;11.632;2023-02-14T08:14:43;29.92;;;17.38;;
22429;SDS011;11382;48.086;11.632;2023-02-14T08:17:11;40.47;;;17.35;;
22429;SDS011;11382;48.086;11.632;2023-02-14T08:19:39;42.72;;;16.67;;
22429;SDS011;11382;48.086;11.632;2023-02-14T08:22:07;42.22;;;15.52;;
22429;SDS011;11382;48.086;11.632;2023-02-14T08:24:35;52.60;;;16.98;;
22429;SDS011;11382;48.086;11.632;2023-02-14T08:27:05;47.97;;;17.83;;
22429;SDS011;11382;48.086;11.632;2023-02-14T08:29:33;28.60;;;15.13;;
22429;SDS011;11382;48.086;11.632;2023-02-14T08:32:01;32.40;;;16.25;;
22429;SDS011;11382;48.086;11.632;2023-02-14T08:34:29;28.02;;;14.77;;
22429;SDS011;11382;48.086;11.632;2023-02-14T08:36:57;24.38;;;12.77;;
22429;SDS011;11382;48.086;11.632;2023-02-14T08:39:25;23.15;;;12.82;;
22429;SDS011;11382;48.086;11.632;2023-02-14T08:41:53;25.55;;;13.07;;
22429;SDS011;11382;48.086;11.632;2023-02-14T08:44:22;21.15;;;11.65;;
22429;SDS011;11382;48.086;11.632;2023-02-14T08:46:52;21.45;;;11.95;;
22429;SDS011;11382;48.086;11.632;2023-02-14T08:49:20;23.77;;;12.63;;
22429;SDS011;11382;48.086;11.632;2023-02-14T08:51:48;21.08;;;12.00;;
22429;SDS011;11382;48.086;11.632;2023-02-14T08:54:15;23.58;;;13.88;;
22429;SDS011;11382;48.086;11.632;2023-02-14T08:56:43;29.42;;;15.05;;
22429;SDS011;11382;48.086;11.632;2023-02-14T08:59:11;24.33;;;13.20;;
22429;SDS011;11382;48.086;11.632;2023-02-14T09:01:41;27.50;;;13.38;;
22429;SDS011;11382;48.086;11.632;2023-02-14T09:04:09;31.00;;;13.32;;
22429;SDS011;11382;48.086;11.632;2023-02-14T09:06:37;23.85;;;13.40;;
22429;SDS011;11382;48.086;11.632;2023-02-14T09:09:06;27.88;;;13.98;;
22429;SDS011;11382;48.086;11.632;2023-02-14T09:11:34;29.90;;;13.70;;
22429;SDS011;11382;48.086;11.632;2023-02-14T09:14:02;29.83;;;14.20;;
22429;SDS011;11382;48.086;11.632;2023-02-14T09:16:30;27.17;;;14.10;;
22429;SDS011;11382;48.086;11.632;2023-02-14T09:18:59;33.78;;;14.02;;
22429;SDS011;11382;48.086;11.632;2023-02-14T09:21:27;25.55;;;13.82;;
22429;SDS011;11382;48.086;11.632;2023-02-14T09:23:55;28.05;;;13.75;;
22429;SDS011;11382;48.086;11.632;2023-02-14T09:26:24;25.75;;;13.77;;
22429;SDS011;11382;48.086;11.632;2023-02-14T09:28:54;26.52;;;14.63;;
22429;SDS011;11382;48.086;11.632;2023-02-14T09:31:23;28.45;;;14.52;;
22429;SDS011;11382;48.086;11.632;2023-02-14T09:33:54;22.27;;;13.60;;
22429;SDS011;11382;48.086;11.632;2023-02-14T09:36:41;29.15;;;15.10;;
22429;SDS011;11382;48.086;11.632;2023-02-14T09:39:09;26.30;;;15.07;;
22429;SDS011;11382;48.086;11.632;2023-02-14T09:44:49;24.27;;;14.70;;
22429;SDS011;11382;48.086;11.632;2023-02-14T09:47:22;24.33;;;14.23;;
22429;SDS011;11382;48.086;11.632;2023-02-14T09:50:00;23.65;;;14.02;;
22429;SDS011;11382;48.086;11.632;2023-02-14T09:52:31;24.45;;;14.30;;
22429;SDS011;11382;48.086;11.632;2023-02-14T09:54:59;23.13;;;13.80;;
22429;SDS011;11382;48.086;11.632;2023-02-14T09:57:32;22.13;;;13.25;;
22429;SDS011;11382;48.086;11.632;2023-02-14T10:00:12;24.05;;;14.05;;
22429;SDS011;11382;48.086;11.632;2023-02-14T10:02:49;21.17;;;13.10;;
22429;SDS011;11382;48.086;11.632;2023-02-14T10:05:25;24.00;;;14.07;;
22429;SDS011;11382;48.086;11.632;2023-02-14T10:07:58;22.33;;;13.48;;
22429;SDS011;11382;48.086;11.632;2023-02-14T10:10:32;20.95;;;12.88;;
22429;SDS011;11382;48.086;11.632;2023-02-14T10:13:06;19.98;;;12.38;;
22429;SDS011;11382;48.086;11.632;2023-02-14T10:15:41;22.40;;;12.68;;
22429;SDS011;11382;48.086;11.632;2023-02-14T10:18:13;19.83;;;12.57;;
22429;SDS011;11382;48.086;11.632;2023-02-14T10:20:48;20.15;;;13.02;;
22429;SDS011;11382;48.086;11.632;2023-02-14T10:23:25;21.08;;;13.02;;
22429;SDS011;11382;48.086;11.632;2023-02-14T10:25:58;19.95;;;13.70;;
22429;SDS011;11382;48.086;11.632;2023-02-14T10:28:31;20.80;;;12.75;;
22429;SDS011;11382;48.086;11.632;2023-02-14T10:31:04;18.30;;;12.18;;
22429;SDS011;11382;48.086;11.632;2023-02-14T10:33:47;18.80;;;12.63;;
22429;SDS011;11382;48.086;11.632;2023-02-14T10:36:26;18.60;;;12.63;;
22429;SDS011;11382;48.086;11.632;2023-02-14T10:39:15;18.15;;;12.63;;
22429;SDS011;11382;48.086;11.632;2023-02-14T10:41:57;16.52;;;12.90;;
22429;SDS011;11382;48.086;11.632;2023-02-14T10:44:37;16.55;;;12.45;;
22429;SDS011;11382;48.086;11.632;2023-02-14T10:47:16;16.52;;;12.65;;
22429;SDS011;11382;48.086;11.632;2023-02-14T10:50:02;19.23;;;13.15;;
22429;SDS011;11382;48.086;11.632;2023-02-14T10:52:42;20.50;;;13.75;;
22429;SDS011;11382;48.086;11.632;2023-02-14T10:55:18;18.50;;;12.50;;
22429;SDS011;11382;48.086;11.632;2023-02-14T10:57:58;17.45;;;12.45;;
22429;SDS011;11382;48.086;11.632;2023-02-14T11:00:31;17.08;;;12.57;;
22429;SDS011;11382;48.086;11.632;2023-02-14T11:03:02;16.63;;;12.07;;
22429;SDS011;11382;48.086;11.632;2023-02-14T11:05:34;17.27;;;12.38;;
22429;SDS011;11382;48.086;11.632;2023-02-14T11:08:12;17.75;;;12.60;;
22429;SDS011;11382;48.086;11.632;2023-02-14T11:10:46;16.23;;;12.52;;
22429;SDS011;11382;48.086;11.632;2023-02-14T11:16:03;17.90;;;13.40;;
22429;SDS011;11382;48.086;11.632;2023-02-14T11:18:34;18.38;;;12.57;;
22429;SDS011;11382;48.086;11.632;2023-02-14T11:21:06;18.15;;;13.70;;
22429;SDS011;11382;48.086;11.632;2023-02-14T11:23:39;16.83;;;13.13;;
22429;SDS011;11382;48.086;11.632;2023-02-14T11:26:13;21.05;;;13.52;;
22429;SDS011;11382;48.086;11.632;2023-02-14T11:28:48;18.73;;;13.88;;
22429;SDS011;11382;48.086;11.632;2023-02-14T11:31:27;19.20;;;13.85;;
22429;SDS011;11382;48.086;11.632;2023-02-14T11:33:57;17.65;;;13.00;;
22429;SDS011;11382;48.086;11.632;2023-02-14T11:36:30;17.33;;;13.10;;
22429;SDS011;11382;48.086;11.632;2023-02-14T11:39:05;16.25;;;12.10;;
22429;SDS011;11382;48.086;11.632;2023-02-14T11:41:47;17.98;;;13.55;;
22429;SDS011;11382;48.086;11.632;2023-02-14T11:44:17;20.77;;;13.30;;
22429;SDS011;11382;48.086;11.632;2023-02-14T11:46:48;19.90;;;13.27;;
22429;SDS011;11382;48.086;11.632;2023-02-14T11:49:23;19.00;;;12.98;;
22429;SDS011;11382;48.086;11.632;2023-02-14T11:51:55;19.70;;;12.55;;
22429;SDS011;11382;48.086;11.632;2023-02-14T11:54:27;22.20;;;13.40;;
22429;SDS011;11382;48.086;11.632;2023-02-14T11:57:02;18.60;;;12.63;;
22429;SDS011;11382;48.086;11.632;2023-02-14T11:59:34;20.02;;;12.43;;
22429;SDS011;11382;48.086;11.632;2023-02-14T12:02:11;16.58;;;11.50;;
22429;SDS011;11382;48.086;11.632;2023-02-14T12:04:46;16.65;;;11.90;;
22429;SDS011;11382;48.086;11.632;2023-02-14T12:07:17;16.38;;;11.57;;
22429;SDS011;11382;48.086;11.632;2023-02-14T12:09:48;15.13;;;11.48;;
22429;SDS011;11382;48.086;11.632;2023-02-14T12:12:35;17.00;;;12.07;;
22429;SDS011;11382;48.086;11.632;2023-02-14T12:15:20;18.50;;;12.38;;
22429;SDS011;11382;48.086;11.632;2023-02-14T12:17:52;19.67;;;12.70;;
22429;SDS011;11382;48.086;11.632;2023-02-14T12:20:30;17.10;;;11.95;;
22429;SDS011;11382;48.086;11.632;2023-02-14T12:23:05;16.20;;;11.63;;
22429;SDS011;11382;48.086;11.632;2023-02-14T12:25:39;21.60;;;12.60;;
22429;SDS011;11382;48.086;11.632;2023-02-14T12:28:12;17.50;;;11.70;;
22429;SDS011;11382;48.086;11.632;2023-02-14T12:33:14;20.70;;;12.07;;
22429;SDS011;11382;48.086;11.632;2023-02-14T12:38:19;23.00;;;12.20;;
22429;SDS011;11382;48.086;11.632;2023-02-14T12:40:56;20.00;;;12.00;;
22429;SDS011;11382;48.086;11.632;2023-02-14T12:43:41;20.58;;;12.30;;
22429;SDS011;11382;48.086;11.632;2023-02-14T12:46:20;19.30;;;12.30;;
22429;SDS011;11382;48.086;11.632;2023-02-14T12:49:22;20.92;;;12.32;;
22429;SDS011;11382;48.086;11.632;2023-02-14T12:52:00;20.60;;;12.25;;
22429;SDS011;11382;48.086;11.632;2023-02-14T12:54:48;23.58;;;12.70;;
22429;SDS011;11382;48.086;11.632;2023-02-14T13:00:05;19.15;;;12.13;;
22429;SDS011;11382;48.086;11.632;2023-02-14T13:02:47;17.38;;;11.60;;
22429;SDS011;11382;48.086;11.632;2023-02-14T13:08:06;23.63;;;11.45;;
22429;SDS011;11382;48.086;11.632;2023-02-14T13:10:49;21.55;;;11.65;;
22429;SDS011;11382;48.086;11.632;2023-02-14T13:13:24;20.67;;;12.05;;
22429;SDS011;11382;48.086;11.632;2023-02-14T13:16:03;22.42;;;12.50;;
22429;SDS011;11382;48.086;11.632;2023-02-14T13:18:42;18.17;;;12.18;;
22429;SDS011;11382;48.086;11.632;2023-02-14T13:21:16;15.57;;;10.75;;
22429;SDS011;11382;48.086;11.632;2023-02-14T13:23:49;22.80;;;12.13;;
22429;SDS011;11382;48.086;11.632;2023-02-14T13:26:21;21.73;;;11.77;;
22429;SDS011;11382;48.086;11.632;2023-02-14T13:28:54;15.33;;;8.80;;
22429;SDS011;11382;48.086;11.632;2023-02-14T13:31:29;20.48;;;12.18;;
22429;SDS011;11382;48.086;11.632;2023-02-14T13:33:59;24.45;;;12.43;;
22429;SDS011;11382;48.086;11.632;2023-02-14T13:36:34;27.90;;;12.70;;
22429;SDS011;11382;48.086;11.632;2023-02-14T13:39:03;19.83;;;12.38;;
22429;SDS011;11382;48.086;11.632;2023-02-14T13:41:33;22.75;;;12.65;;
22429;SDS011;11382;48.086;11.632;2023-02-14T13:44:01;18.80;;;11.98;;
22429;SDS011;11382;48.086;11.632;2023-02-14T13:46:45;21.23;;;12.43;;
22429;SDS011;11382;48.086;11.632;2023-02-14T13:49:23;26.15;;;13.38;;
22429;SDS011;11382;48.086;11.632;2023-02-14T13:51:56;19.75;;;12.85;;
22429;SDS011;11382;48.086;11.632;2023-02-14T13:54:30;26.38;;;14.35;;
22429;SDS011;11382;48.086;11.632;2023-02-14T14:02:52;20.60;;;12.93;;
22429;SDS011;11382;48.086;11.632;2023-02-14T14:08:39;22.13;;;13.18;;
22429;SDS011;11382;48.086;11.632;2023-02-14T14:11:10;23.48;;;13.43;;
22429;SDS011;11382;48.086;11.632;2023-02-14T14:16:30;24.08;;;13.70;;
22429;SDS011;11382;48.086;11.632;2023-02-14T14:19:03;23.83;;;13.63;;
22429;SDS011;11382;48.086;11.632;2023-02-14T14:21:59;19.90;;;12.63;;
22429;SDS011;11382;48.086;11.632;2023-02-14T14:24:31;23.15;;;13.15;;
22429;SDS011;11382;48.086;11.632;2023-02-14T14:27:00;22.67;;;12.85;;
22429;SDS011;11382;48.086;11.632;2023-02-14T14:29:33;26.02;;;13.35;;
22429;SDS011;11382;48.086;11.632;2023-02-14T14:32:07;23.35;;;12.75;;
22429;SDS011;11382;48.086;11.632;2023-02-14T14:34:36;19.35;;;12.85;;
22429;SDS011;11382;48.086;11.632;2023-02-14T14:37:15;23.13;;;12.75;;
22429;SDS011;11382;48.086;11.632;2023-02-14T14:39:48;23.88;;;13.23;;
22429;SDS011;11382;48.086;11.632;2023-02-14T14:42:18;21.52;;;12.38;;
22429;SDS011;11382;48.086;11.632;2023-02-14T14:44:47;25.27;;;12.95;;
22429;SDS011;11382;48.086;11.632;2023-02-14T14:47:18;25.45;;;13.05;;
22429;SDS011;11382;48.086;11.632;2023-02-14T14:49:51;21.48;;;12.95;;
22429;SDS011;11382;48.086;11.632;2023-02-14T14:52:31;25.45;;;12.90;;
22429;SDS011;11382;48.086;11.632;2023-02-14T14:55:03;26.35;;;13.50;;
22429;SDS011;11382;48.086;11.632;2023-02-14T14:57:34;22.20;;;13.25;;
22429;SDS011;11382;48.086;11.632;2023-02-14T15:00:05;22.08;;;12.52;;
22429;SDS011;11382;48.086;11.632;2023-02-14T15:02:53;23.85;;;13.48;;
22429;SDS011;11382;48.086;11.632;2023-02-14T15:05:31;24.08;;;13.45;;
22429;SDS011;11382;48.086;11.632;2023-02-14T15:08:14;23.73;;;13.30;;
22429;SDS011;11382;48.086;11.632;2023-02-14T15:10:46;24.33;;;12.60;;
22429;SDS011;11382;48.086;11.632;2023-02-14T15:13:17;22.77;;;13.27;;
22429;SDS011;11382;48.086;11.632;2023-02-14T15:16:05;21.70;;;12.80;;
22429;SDS011;11382;48.086;11.632;2023-02-14T15:18:34;23.23;;;13.77;;
22429;SDS011;11382;48.086;11.632;2023-02-14T15:21:03;23.73;;;12.70;;
22429;SDS011;11382;48.086;11.632;2023-02-14T15:23:33;24.80;;;13.50;;